Time;durP1;ratioP1;P1;durP2;ratioP2;P2;SDS_P1;SDS_P2;PMS_P1;PMS_P2;Temp;Humidity;BMP_temperature;BMP_pressure;BME280_temperature;BME280_humidity;BME280_pressure;Samples;Min_cycle;Max_cycle;Signal;HPM_P1;HPM_P2
2022/07/31 00:01:31;;;;;;;4.15;2.28;;;;;;;21.57;nan;-24416.63;5071969;28;20209;-62
2022/07/31 00:03:56;;;;;;;3.83;2.47;;;;;;;21.62;nan;-24417.84;5071736;28;20535;-62
2022/07/31 00:06:21;;;;;;;3.40;2.33;;;;;;;21.26;nan;-24407.88;5071687;28;20209;-62
2022/07/31 00:08:49;;;;;;;3.83;2.40;;;;;;;21.52;nan;-24415.09;5071746;28;20198;-62
2022/07/31 00:11:14;;;;;;;3.20;2.20;;;;;;;21.67;nan;-24419.25;5071511;28;20561;-62
2022/07/31 00:13:40;;;;;;;6.35;2.33;;;;;;;21.51;nan;-24414.81;5071269;28;20714;-61
2022/07/31 00:16:05;;;;;;;3.83;2.30;;;;;;;21.46;nan;-24413.56;5070997;28;20583;-62
2022/07/31 00:18:33;;;;;;;3.35;2.40;;;;;;;21.17;nan;-24405.53;5071563;28;20182;-62
2022/07/31 00:21:00;;;;;;;2.95;2.13;;;;;;;21.34;nan;-24410.25;5072275;28;20217;-62
2022/07/31 00:23:26;;;;;;;2.72;1.85;;;;;;;21.28;nan;-24408.56;5075144;28;20606;-62
2022/07/31 00:25:52;;;;;;;3.05;2.03;;;;;;;20.98;nan;-24400.25;5074816;28;20208;-62
2022/07/31 00:28:17;;;;;;;5.93;2.30;;;;;;;21.05;nan;-24402.19;5074516;28;20177;-62
2022/07/31 00:30:42;;;;;;;3.25;2.30;;;;;;;21.07;nan;-24402.88;5075563;28;20194;-62
2022/07/31 00:33:08;;;;;;;3.55;2.30;;;;;;;21.52;nan;-24415.09;5074747;28;20201;-62
2022/07/31 00:35:33;;;;;;;3.47;2.38;;;;;;;21.40;nan;-24411.75;5074564;28;20197;-63
2022/07/31 00:37:58;;;;;;;5.03;2.58;;;;;;;21.29;nan;-24408.72;5074878;28;20644;-62
2022/07/31 00:40:24;;;;;;;5.25;2.38;;;;;;;21.38;nan;-24411.34;5074922;28;20339;-62
2022/07/31 00:42:49;;;;;;;4.18;2.47;;;;;;;21.51;nan;-24414.81;5075034;28;20613;-62
2022/07/31 00:45:15;;;;;;;4.35;2.65;;;;;;;21.63;nan;-24418.00;5074539;28;20746;-62
2022/07/31 00:47:41;;;;;;;3.72;2.40;;;;;;;21.75;nan;-24421.31;5074650;28;20170;-63
2022/07/31 00:50:07;;;;;;;4.22;2.60;;;;;;;21.46;nan;-24413.56;5074837;28;20181;-63
2022/07/31 00:52:32;;;;;;;3.05;2.35;;;;;;;21.83;nan;-24423.69;5074631;28;20629;-62
2022/07/31 00:54:57;;;;;;;4.35;2.55;;;;;;;21.76;nan;-24421.75;5074439;28;20629;-62
2022/07/31 00:57:23;;;;;;;3.75;2.58;;;;;;;21.50;nan;-24414.66;5074270;28;20170;-63
2022/07/31 00:59:48;;;;;;;4.00;2.30;;;;;;;21.86;nan;-24424.38;5074553;28;20169;-62
2022/07/31 01:02:14;;;;;;;3.67;2.45;;;;;;;21.81;nan;-24422.97;5073114;28;20174;-62
2022/07/31 01:04:39;;;;;;;3.72;2.60;;;;;;;21.81;nan;-24423.13;5073879;28;20628;-63
2022/07/31 01:07:05;;;;;;;4.03;2.47;;;;;;;21.90;nan;-24425.47;5074008;28;20245;-63
2022/07/31 01:09:30;;;;;;;2.88;2.30;;;;;;;21.78;nan;-24422.28;5073892;28;20204;-62
2022/07/31 01:12:19;;;;;;;4.35;2.30;;;;;;;21.96;nan;-24427.28;5073939;28;20246;-63
2022/07/31 01:14:49;;;;;;;4.32;2.58;;;;;;;22.07;nan;-24430.19;5074191;28;20252;-62
2022/07/31 01:17:16;;;;;;;4.53;2.55;;;;;;;21.80;nan;-24422.84;5073288;28;20166;-62
2022/07/31 01:19:47;;;;;;;4.35;2.40;;;;;;;22.12;nan;-24431.44;5073979;28;20178;-62
2022/07/31 01:22:50;;;;;;;5.25;2.60;;;;;;;22.15;nan;-24432.25;5073883;28;20200;-62
2022/07/31 01:25:39;;;;;;;4.55;2.90;;;;;;;21.98;nan;-24427.69;5073938;28;20165;-62
2022/07/31 01:28:23;;;;;;;3.58;2.53;;;;;;;21.68;nan;-24419.38;4992206;28;20163;-62
2022/07/31 01:30:53;;;;;;;5.20;2.60;;;;;;;21.64;nan;-24418.41;5073950;28;20648;-62
2022/07/31 01:33:22;;;;;;;7.40;3.47;;;;;;;21.64;nan;-24418.28;5072025;28;20166;-62
2022/07/31 01:35:53;;;;;;;6.88;4.15;;;;;;;22.01;nan;-24428.53;5073694;28;20211;-62
2022/07/31 01:38:26;;;;;;;6.53;3.97;;;;;;;21.95;nan;-24427.00;5073748;28;20154;-62
2022/07/31 01:41:01;;;;;;;7.60;3.47;;;;;;;21.79;nan;-24422.56;5073604;28;20277;-62
2022/07/31 01:43:39;;;;;;;5.10;3.10;;;;;;;21.91;nan;-24425.91;5073749;28;20469;-62
2022/07/31 01:46:08;;;;;;;4.22;2.75;;;;;;;21.56;nan;-24416.34;5074070;28;20177;-62
2022/07/31 01:48:34;;;;;;;6.10;3.28;;;;;;;21.62;nan;-24417.84;5073542;28;20151;-62
2022/07/31 01:51:02;;;;;;;5.80;2.65;;;;;;;21.52;nan;-24415.22;5073753;28;20243;-62
2022/07/31 01:53:30;;;;;;;5.78;3.42;;;;;;;;;;5073669;28;20356;-62
2022/07/31 01:55:56;;;;;;;5.68;2.97;;;;;;;21.36;nan;-24410.66;5073291;28;20174;-63
2022/07/31 01:58:24;;;;;;;5.88;3.08;;;;;;;21.40;nan;-24411.91;5073427;28;20257;-62
2022/07/31 02:00:52;;;;;;;6.32;3.33;;;;;;;21.32;nan;-24409.53;5072963;28;20284;-62
2022/07/31 02:03:19;;;;;;;6.25;3.95;;;;;;;21.52;nan;-24415.09;5073040;28;20257;-63
2022/07/31 02:05:46;;;;;;;6.13;3.17;;;;;;;21.53;nan;-24415.38;5073506;28;20170;-62
2022/07/31 02:08:15;;;;;;;7.07;3.70;;;;;;;21.55;nan;-24416.06;5073081;28;20174;-62
2022/07/31 02:10:43;;;;;;;4.53;2.78;;;;;;;21.13;nan;-24404.56;5072900;28;20524;-62
2022/07/31 02:13:10;;;;;;;6.72;3.28;;;;;;;21.33;nan;-24409.81;5072694;28;20275;-62
2022/07/31 02:15:36;;;;;;;5.63;3.22;;;;;;;21.38;nan;-24411.22;5072525;28;20170;-63
2022/07/31 02:18:03;;;;;;;4.47;3.30;;;;;;;20.96;nan;-24399.69;5072952;28;20174;-62
2022/07/31 02:20:30;;;;;;;5.68;3.60;;;;;;;21.26;nan;-24407.88;5072964;28;20185;-62
2022/07/31 02:22:57;;;;;;;6.22;3.75;;;;;;;21.16;nan;-24405.25;5073190;28;20177;-62
2022/07/31 02:25:23;;;;;;;4.85;3.35;;;;;;;21.23;nan;-24407.03;5073774;28;20189;-62
2022/07/31 02:27:49;;;;;;;5.10;3.40;;;;;;;16.35;nan;-24272.81;5073197;28;20173;-62
2022/07/31 02:30:15;;;;;;;5.63;3.83;;;;;;;;;;5072711;28;20181;-64
2022/07/31 02:32:45;;;;;;;5.75;3.35;;;;;;;20.79;nan;-24394.97;5073096;28;20197;-62
2022/07/31 02:35:14;;;;;;;6.45;3.58;;;;;;;21.00;nan;-24400.81;5072988;28;20202;-62
2022/07/31 02:37:41;;;;;;;7.38;3.35;;;;;;;20.95;nan;-24399.56;5072535;28;20244;-62
2022/07/31 02:40:08;;;;;;;5.97;3.53;;;;;;;20.93;nan;-24399.00;5072363;28;20221;-62
2022/07/31 02:42:34;;;;;;;5.90;3.53;;;;;;;20.70;nan;-24392.63;5072460;28;20170;-62
2022/07/31 02:45:01;;;;;;;5.47;3.20;;;;;;;20.57;nan;-24389.16;5071915;28;20171;-62
2022/07/31 02:47:28;;;;;;;5.65;3.45;;;;;;;20.93;nan;-24399.00;5072490;28;20257;-62
2022/07/31 02:49:54;;;;;;;5.40;3.55;;;;;;;20.57;nan;-24389.16;5072446;28;20162;-62
2022/07/31 02:52:21;;;;;;;4.75;3.08;;;;;;;20.86;nan;-24397.06;5072518;28;20154;-62
2022/07/31 02:54:48;;;;;;;4.88;3.17;;;;;;;20.85;nan;-24396.78;5071679;28;20169;-62
2022/07/31 02:57:14;;;;;;;4.55;2.97;;;;;;;20.52;nan;-24387.63;5071842;28;20170;-62
2022/07/31 02:59:39;;;;;;;5.72;3.22;;;;;;;20.78;nan;-24394.69;5071988;28;20189;-63
2022/07/31 03:02:05;;;;;;;5.07;3.08;;;;;;;20.87;nan;-24397.34;5074038;28;20627;-62
2022/07/31 03:04:31;;;;;;;3.90;2.65;;;;;;;;;;5071373;28;20454;-62
2022/07/31 03:06:59;;;;;;;5.80;3.50;;;;;;;20.90;nan;-24398.16;5071325;28;20189;-62
2022/07/31 03:09:25;;;;;;;4.65;3.00;;;;;;;20.62;nan;-24390.41;5071569;28;20162;-62
2022/07/31 03:11:50;;;;;;;4.50;2.97;;;;;;;20.88;nan;-24397.47;5071729;28;20204;-62
2022/07/31 03:14:17;;;;;;;4.45;2.88;;;;;;;20.80;nan;-24395.25;5071467;28;20676;-62
2022/07/31 03:16:45;;;;;;;5.18;3.17;;;;;;;20.83;nan;-24396.09;5071784;28;20154;-62
2022/07/31 03:19:12;;;;;;;5.47;2.92;;;;;;;20.61;nan;-24390.13;5071945;28;20216;-62
2022/07/31 03:21:37;;;;;;;5.53;3.05;;;;;;;20.74;nan;-24393.72;5071688;28;20232;-62
2022/07/31 03:24:03;;;;;;;6.40;3.00;;;;;;;;;;5071314;28;20170;-62
2022/07/31 03:26:29;;;;;;;4.93;3.10;;;;;;;20.74;nan;-24393.72;5071376;28;20640;-62
2022/07/31 03:28:55;;;;;;;5.00;3.05;;;;;;;20.46;nan;-24385.97;5070742;28;20231;-62
2022/07/31 03:31:20;;;;;;;5.85;3.58;;;;;;;20.66;nan;-24391.50;5071352;28;20170;-62
2022/07/31 03:33:45;;;;;;;4.78;2.70;;;;;;;20.37;nan;-24383.47;5071939;28;20253;-62
2022/07/31 03:36:11;;;;;;;4.80;3.00;;;;;;;20.64;nan;-24391.09;5071549;28;20170;-61
2022/07/31 03:38:37;;;;;;;4.80;2.90;;;;;;;20.44;nan;-24385.41;5072431;28;20166;-62
2022/07/31 03:41:02;;;;;;;6.53;3.35;;;;;;;20.65;nan;-24391.22;5071455;28;20316;-62
2022/07/31 03:43:31;;;;;;;5.25;3.08;;;;;;;20.86;nan;-24397.06;5072052;28;20557;-62
2022/07/31 03:46:00;;;;;;;4.35;2.92;;;;;;;20.85;nan;-24396.66;5071647;28;20187;-62
2022/07/31 03:48:28;;;;;;;4.28;2.90;;;;;;;21.22;nan;-24406.91;5071291;28;20510;-62
2022/07/31 03:50:54;;;;;;;6.20;3.42;;;;;;;22.14;nan;-24432.13;5071508;28;20174;-62
2022/07/31 03:53:21;;;;;;;4.55;3.00;;;;;;;23.44;nan;-24467.53;5071101;28;20165;-62
2022/07/31 03:55:47;;;;;;;4.13;2.88;;;;;;;23.81;nan;-24477.75;5072148;28;20166;-63
2022/07/31 03:58:13;;;;;;;4.82;3.08;;;;;;;23.54;nan;-24470.28;5074963;28;20177;-63
2022/07/31 04:00:39;;;;;;;4.07;2.83;;;;;;;24.99;nan;-24510.00;5075610;28;20197;-63
2022/07/31 04:03:07;;;;;;;6.85;3.15;;;;;;;25.57;nan;-24525.69;5075459;28;20166;-63
2022/07/31 04:05:33;;;;;;;4.88;3.20;;;;;;;26.38;nan;-24547.81;5075157;28;20206;-62
2022/07/31 04:07:58;;;;;;;4.13;2.90;;;;;;;27.02;nan;-24564.97;5075138;28;20241;-62
2022/07/31 04:10:24;;;;;;;4.35;2.92;;;;;;;27.23;nan;-24570.75;5075512;28;20197;-63
2022/07/31 04:12:50;;;;;;;4.60;2.85;;;;;;;28.03;nan;-24592.53;5075246;28;20224;-63
2022/07/31 04:15:15;;;;;;;5.05;3.42;;;;;;;28.67;nan;-24609.75;5075249;28;20158;-63
2022/07/31 04:17:41;;;;;;;4.97;3.30;;;;;;;29.03;nan;-24619.34;5075495;28;20169;-63
2022/07/31 04:20:07;;;;;;;7.53;3.50;;;;;;;29.21;nan;-24624.38;5074424;28;20733;-63
2022/07/31 04:22:32;;;;;;;6.53;3.28;;;;;;;29.39;nan;-24629.16;5074639;28;20254;-63
2022/07/31 04:24:58;;;;;;;6.35;3.20;;;;;;;29.72;nan;-24638.19;5075637;28;20249;-63
2022/07/31 04:27:23;;;;;;;5.50;3.35;;;;;;;30.35;nan;-24655.09;5074970;28;20192;-63
2022/07/31 04:29:48;;;;;;;4.82;3.40;;;;;;;30.45;nan;-24657.81;5075019;28;20166;-63
2022/07/31 04:32:14;;;;;;;3.90;2.97;;;;;;;28.07;nan;-24593.47;5075718;28;20585;-63
2022/07/31 04:34:41;;;;;;;6.78;3.33;;;;;;;30.46;nan;-24658.09;5074640;28;20180;-63
2022/07/31 04:37:07;;;;;;;4.50;3.20;;;;;;;30.55;nan;-24660.41;5074680;28;20173;-63
2022/07/31 04:39:32;;;;;;;5.30;3.40;;;;;;;30.39;nan;-24656.19;5074218;28;20629;-63
2022/07/31 04:41:58;;;;;;;7.63;3.67;;;;;;;26.39;nan;-24547.97;5074353;28;20231;-63
2022/07/31 04:44:23;;;;;;;6.13;3.38;;;;;;;29.97;nan;-24644.72;5074532;28;20173;-63
2022/07/31 04:46:49;;;;;;;4.20;3.15;;;;;;;29.35;nan;-24628.06;5074321;28;20182;-63
2022/07/31 04:49:15;;;;;;;6.15;3.00;;;;;;;29.01;nan;-24618.78;5073920;28;20166;-63
2022/07/31 04:51:41;;;;;;;5.60;2.78;;;;;;;28.63;nan;-24608.66;5074732;28;20173;-63
2022/07/31 04:54:08;;;;;;;4.22;2.65;;;;;;;28.46;nan;-24604.16;5073623;28;20672;-63
2022/07/31 04:56:40;;;;;;;3.72;2.92;;;;;;;28.77;nan;-24612.50;5076443;28;20716;-63
2022/07/31 04:59:08;;;;;;;4.82;3.05;;;;;;;28.62;nan;-24608.41;5074041;28;20618;-63
2022/07/31 05:01:34;;;;;;;5.10;2.65;;;;;;;28.79;nan;-24613.03;5073140;28;20190;-64
2022/07/31 05:04:00;;;;;;;3.95;2.72;;;;;;;26.22;nan;-24543.41;5072658;28;20273;-63
2022/07/31 05:06:33;;;;;;;3.35;2.55;;;;;;;28.25;nan;-24598.28;5073637;28;20162;-63
2022/07/31 05:08:58;;;;;;;3.47;2.35;;;;;;;28.49;nan;-24604.97;5074616;28;20251;-63
2022/07/31 05:11:24;;;;;;;3.13;2.25;;;;;;;28.25;nan;-24598.28;5074366;28;20572;-63
2022/07/31 05:13:55;;;;;;;3.83;2.22;;;;;;;27.66;nan;-24582.53;5074134;28;20218;-63
2022/07/31 05:16:21;;;;;;;3.58;2.53;;;;;;;27.49;nan;-24577.88;5074285;28;20605;-64
2022/07/31 05:18:47;;;;;;;3.30;2.47;;;;;;;27.65;nan;-24582.13;5074370;28;20624;-64
2022/07/31 05:21:14;;;;;;;3.40;2.40;;;;;;;27.61;nan;-24581.00;5073922;28;20197;-63
2022/07/31 05:23:41;;;;;;;3.60;2.20;;;;;;;27.21;nan;-24570.19;5074153;28;20198;-63
2022/07/31 05:26:07;;;;;;;2.58;2.05;;;;;;;27.18;nan;-24569.50;5074188;28;20204;-63
2022/07/31 05:28:33;;;;;;;3.55;2.25;;;;;;;27.38;nan;-24574.84;5073388;28;20162;-63
2022/07/31 05:30:59;;;;;;;4.25;2.67;;;;;;;26.74;nan;-24557.44;5073660;28;20170;-63
2022/07/31 05:33:24;;;;;;;3.88;2.38;;;;;;;26.89;nan;-24561.41;5074156;28;20509;-63
2022/07/31 05:35:50;;;;;;;4.47;2.55;;;;;;;26.61;nan;-24553.84;5073486;28;20173;-63
2022/07/31 05:38:15;;;;;;;4.75;2.50;;;;;;;26.65;nan;-24554.97;5073737;28;20166;-62
2022/07/31 05:40:41;;;;;;;4.03;2.60;;;;;;;26.09;nan;-24539.84;5073404;28;20186;-62
2022/07/31 05:43:06;;;;;;;3.50;2.47;;;;;;;26.44;nan;-24549.34;5088932;28;20166;-63
2022/07/31 05:45:32;;;;;;;3.22;2.25;;;;;;;26.55;nan;-24552.22;5073451;28;20177;-63
2022/07/31 05:47:57;;;;;;;3.60;2.55;;;;;;;26.38;nan;-24547.69;5073513;28;20174;-63
2022/07/31 05:50:23;;;;;;;3.83;2.38;;;;;;;26.02;nan;-24537.78;5073799;28;20166;-62
2022/07/31 05:52:48;;;;;;;3.75;2.20;;;;;;;26.47;nan;-24550.00;5073753;28;20170;-62
2022/07/31 05:55:15;;;;;;;4.13;2.38;;;;;;;26.34;nan;-24546.72;5073688;28;20162;-62
2022/07/31 05:57:40;;;;;;;4.03;2.38;;;;;;;26.33;nan;-24546.31;5073816;28;20173;-62
2022/07/31 06:00:07;;;;;;;3.35;2.20;;;;;;;26.53;nan;-24551.81;5073016;28;20162;-62
2022/07/31 06:02:33;;;;;;;4.32;2.63;;;;;;;26.10;nan;-24539.97;5078458;28;20173;-63
2022/07/31 06:04:59;;;;;;;4.07;2.60;;;;;;;26.62;nan;-24554.28;5074986;28;20193;-63
2022/07/31 06:07:24;;;;;;;3.25;2.35;;;;;;;26.65;nan;-24555.09;5076681;28;20181;-65
2022/07/31 06:09:50;;;;;;;3.65;2.40;;;;;;;26.41;nan;-24548.50;5084743;28;20174;-63
2022/07/31 06:12:15;;;;;;;2.65;2.08;;;;;;;26.39;nan;-24547.97;5074303;28;20227;-62
2022/07/31 06:14:41;;;;;;;2.60;2.08;;;;;;;26.36;nan;-24547.13;5075896;28;20651;-63
2022/07/31 06:17:06;;;;;;;4.07;2.30;;;;;;;26.37;nan;-24547.53;5093771;28;20188;-63
2022/07/31 06:19:33;;;;;;;3.58;2.80;;;;;;;26.65;nan;-24554.97;5079627;28;20204;-63
2022/07/31 06:21:59;;;;;;;3.55;2.42;;;;;;;26.33;nan;-24546.44;5075629;28;20201;-65
2022/07/31 06:24:24;;;;;;;3.08;2.50;;;;;;;26.28;nan;-24545.06;5076530;28;20178;-63
2022/07/31 06:26:51;;;;;;;3.72;2.75;;;;;;;26.62;nan;-24554.13;5070776;28;20217;-62
2022/07/31 06:29:16;;;;;;;3.45;2.65;;;;;;;26.77;nan;-24558.25;5079170;28;20262;-61
2022/07/31 06:31:42;;;;;;;3.85;2.50;;;;;;;26.88;nan;-24561.13;5074309;28;20228;-62
2022/07/31 06:34:07;;;;;;;3.28;2.38;;;;;;;27.04;nan;-24565.66;5081249;28;20186;-62
2022/07/31 06:36:33;;;;;;;3.95;2.70;;;;;;;27.16;nan;-24568.81;5083017;28;20181;-63
2022/07/31 06:38:58;;;;;;;3.65;2.55;;;;;;;27.25;nan;-24571.28;5077557;28;20335;-63
2022/07/31 06:44:08;;;;;;;3.50;2.53;;;;;;;27.52;nan;-24578.56;5072143;28;20663;-63
2022/07/31 06:46:33;;;;;;;5.55;3.28;;;;;;;27.80;nan;-24586.22;5072800;28;20166;-64
2022/07/31 06:48:59;;;;;;;5.05;3.08;;;;;;;27.28;nan;-24571.97;5083218;28;20667;-63
2022/07/31 06:51:24;;;;;;;4.25;2.95;;;;;;;27.12;nan;-24567.72;5078648;28;20181;-63
2022/07/31 06:53:50;;;;;;;6.30;3.58;;;;;;;27.45;nan;-24576.63;5072253;28;20245;-62
2022/07/31 06:56:16;;;;;;;4.35;3.00;;;;;;;26.71;nan;-24556.75;5077421;28;20201;-63
2022/07/31 06:58:41;;;;;;;3.90;2.40;;;;;;;27.42;nan;-24575.81;5074161;28;20173;-63
2022/07/31 07:01:07;;;;;;;4.03;2.95;;;;;;;27.56;nan;-24579.66;5079460;28;20701;-63
2022/07/31 07:03:32;;;;;;;5.28;3.10;;;;;;;27.03;nan;-24565.25;5083446;28;20236;-63
2022/07/31 07:05:58;;;;;;;5.13;3.28;;;;;;;27.19;nan;-24569.78;5080716;28;20570;-63
2022/07/31 07:08:24;;;;;;;4.65;3.25;;;;;;;27.15;nan;-24568.69;5074208;28;20186;-62
2022/07/31 07:10:49;;;;;;;5.25;3.55;;;;;;;27.30;nan;-24572.50;5077436;28;20549;-63
2022/07/31 07:13:15;;;;;;;5.38;3.55;;;;;;;27.24;nan;-24571.00;5073919;28;20274;-62
2022/07/31 07:15:40;;;;;;;6.15;3.38;;;;;;;27.36;nan;-24574.16;5073641;28;20600;-62
2022/07/31 07:18:06;;;;;;;6.07;3.40;;;;;;;27.00;nan;-24564.44;5077944;28;20628;-63
2022/07/31 07:20:32;;;;;;;4.97;3.40;;;;;;;27.23;nan;-24570.75;5073087;28;20186;-63
2022/07/31 07:22:57;;;;;;;5.68;3.75;;;;;;;27.35;nan;-24573.88;5077370;28;20737;-62
2022/07/31 07:25:23;;;;;;;5.93;3.90;;;;;;;27.56;nan;-24579.78;5073860;28;20166;-63
2022/07/31 07:27:48;;;;;;;6.38;3.78;;;;;;;27.22;nan;-24570.47;5072024;28;20258;-63
2022/07/31 07:30:14;;;;;;;6.63;3.42;;;;;;;27.49;nan;-24577.72;5070685;28;20208;-63
2022/07/31 07:32:39;;;;;;;6.80;4.30;;;;;;;27.77;nan;-24585.25;5076594;28;20176;-62
2022/07/31 07:35:05;;;;;;;6.93;3.80;;;;;;;27.74;nan;-24584.59;5072814;28;20235;-62
2022/07/31 07:37:31;;;;;;;5.60;4.07;;;;;;;28.15;nan;-24595.53;5075088;28;20563;-62
2022/07/31 07:39:57;;;;;;;5.15;3.67;;;;;;;28.10;nan;-24594.44;5073575;28;20182;-62
2022/07/31 07:42:23;;;;;;;5.28;3.40;;;;;;;27.97;nan;-24590.75;5073949;28;20203;-61
2022/07/31 07:44:48;;;;;;;7.05;4.00;;;;;;;28.20;nan;-24597.03;5076517;28;20178;-62
2022/07/31 07:47:14;;;;;;;5.97;4.20;;;;;;;28.20;nan;-24596.91;5079361;28;21909;-62
2022/07/31 07:49:39;;;;;;;6.97;4.07;;;;;;;28.34;nan;-24600.75;5081949;28;20179;-61
2022/07/31 07:52:05;;;;;;;7.75;4.28;;;;;;;28.45;nan;-24603.75;5077969;28;20666;-62
2022/07/31 07:54:30;;;;;;;5.20;3.63;;;;;;;28.07;nan;-24593.63;5073863;28;20169;-61
2022/07/31 07:56:56;;;;;;;8.57;3.75;;;;;;;28.43;nan;-24603.34;5078362;28;20179;-61
2022/07/31 07:59:21;;;;;;;6.25;4.18;;;;;;;28.55;nan;-24606.63;5081663;28;20213;-61
2022/07/31 08:01:47;;;;;;;6.07;4.10;;;;;;;28.30;nan;-24599.66;5073669;28;20288;-61
2022/07/31 08:04:12;;;;;;;6.55;3.92;;;;;;;28.25;nan;-24598.41;5071452;28;20685;-61
2022/07/31 08:06:38;;;;;;;6.25;4.15;;;;;;;28.66;nan;-24609.34;5076537;28;20318;-61
2022/07/31 08:09:03;;;;;;;6.43;3.78;;;;;;;28.36;nan;-24601.41;5076540;28;20228;-61
2022/07/31 08:11:29;;;;;;;7.18;4.30;;;;;;;28.59;nan;-24607.56;5071203;28;20170;-61
2022/07/31 08:13:54;;;;;;;8.93;5.20;;;;;;;28.73;nan;-24611.28;5071597;28;20263;-62
2022/07/31 08:16:21;;;;;;;7.05;4.32;;;;;;;28.71;nan;-24610.88;5076411;28;20597;-63
2022/07/31 08:18:47;;;;;;;6.88;3.92;;;;;;;28.52;nan;-24605.78;5071228;28;20529;-61
2022/07/31 08:21:13;;;;;;;6.55;4.10;;;;;;;28.88;nan;-24615.50;5076160;28;20206;-61
2022/07/31 08:23:38;;;;;;;5.78;3.78;;;;;;;28.58;nan;-24607.28;5072046;28;20526;-61
2022/07/31 08:26:04;;;;;;;6.38;4.20;;;;;;;28.77;nan;-24612.38;5075510;28;20185;-61
2022/07/31 08:28:29;;;;;;;6.43;4.28;;;;;;;29.05;nan;-24620.00;5072992;28;20170;-61
2022/07/31 08:30:55;;;;;;;5.97;4.00;;;;;;;29.23;nan;-24624.78;5070723;28;20189;-61
2022/07/31 08:33:21;;;;;;;5.60;3.92;;;;;;;29.08;nan;-24620.84;5073429;28;20633;-61
2022/07/31 08:35:48;;;;;;;7.95;4.85;;;;;;;29.27;nan;-24626.03;5074176;28;20637;-61
2022/07/31 08:38:15;;;;;;;6.05;3.88;;;;;;;29.52;nan;-24632.72;5075675;28;20217;-61
2022/07/31 08:40:41;;;;;;;5.95;3.83;;;;;;;29.67;nan;-24636.81;5075210;28;20193;-61
2022/07/31 08:43:07;;;;;;;8.82;4.05;;;;;;;30.08;nan;-24647.88;5094442;28;20284;-61
2022/07/31 08:45:36;;;;;;;6.72;4.40;;;;;;;30.05;nan;-24647.03;5075522;28;20267;-61
2022/07/31 08:48:05;;;;;;;5.90;3.88;;;;;;;29.56;nan;-24633.66;5074734;28;20180;-61
2022/07/31 08:50:32;;;;;;;8.00;4.85;;;;;;;;;;5079702;28;20640;-61
2022/07/31 08:52:58;;;;;;;6.78;4.40;;;;;;;29.69;nan;-24637.34;5074069;28;20667;-62
2022/07/31 08:55:24;;;;;;;6.07;4.20;;;;;;;30.14;nan;-24649.38;5080116;28;20176;-61
2022/07/31 08:57:50;;;;;;;6.88;4.28;;;;;;;30.14;nan;-24649.38;5080665;28;20222;-61
2022/07/31 09:00:18;;;;;;;5.28;4.10;;;;;;;30.12;nan;-24648.94;5074627;28;20276;-60
2022/07/31 09:02:43;;;;;;;7.07;4.25;;;;;;;30.45;nan;-24657.66;5074357;28;20181;-62
2022/07/31 09:05:09;;;;;;;7.32;4.25;;;;;;;30.57;nan;-24661.09;5081316;28;20200;-61
2022/07/31 09:07:35;;;;;;;7.00;4.40;;;;;;;30.36;nan;-24655.22;5076442;28;20640;-62
2022/07/31 09:10:02;;;;;;;7.55;4.80;;;;;;;30.38;nan;-24655.78;5074317;28;20256;-62
2022/07/31 09:12:32;;;;;;;6.72;4.13;;;;;;;30.34;nan;-24654.69;5079002;28;20686;-61
2022/07/31 09:14:58;;;;;;;6.82;4.10;;;;;;;30.20;nan;-24651.13;5074095;28;20174;-61
2022/07/31 09:17:35;;;;;;;6.80;4.20;;;;;;;30.37;nan;-24655.63;5074185;28;20172;-61
2022/07/31 09:20:01;;;;;;;6.90;4.35;;;;;;;30.27;nan;-24653.03;5074483;28;20181;-61
2022/07/31 09:22:29;;;;;;;6.00;4.20;;;;;;;30.47;nan;-24658.38;5073866;28;20545;-61
2022/07/31 09:25:10;;;;;;;6.28;4.07;;;;;;;30.40;nan;-24656.44;5075762;28;20712;-62
2022/07/31 09:27:36;;;;;;;6.82;4.22;;;;;;;30.44;nan;-24657.53;5074485;28;20176;-62
2022/07/31 09:30:03;;;;;;;6.95;4.50;;;;;;;30.53;nan;-24659.84;5074210;28;20165;-61
2022/07/31 09:32:28;;;;;;;5.40;3.92;;;;;;;30.59;nan;-24661.63;5073835;28;20212;-61
2022/07/31 09:35:04;;;;;;;6.00;4.07;;;;;;;30.89;nan;-24669.53;5073967;28;20195;-62
2022/07/31 09:37:30;;;;;;;5.82;3.92;;;;;;;30.76;nan;-24665.97;5074326;28;20173;-62
2022/07/31 09:39:56;;;;;;;4.85;3.42;;;;;;;30.79;nan;-24666.81;5074043;28;20170;-62
2022/07/31 09:42:22;;;;;;;6.15;3.88;;;;;;;30.88;nan;-24669.25;5073857;28;20185;-62
2022/07/31 09:44:49;;;;;;;5.90;3.67;;;;;;;;;;5074096;28;20177;-62
2022/07/31 09:47:27;;;;;;;4.70;3.22;;;;;;;30.75;nan;-24665.72;5074186;28;20174;-62
2022/07/31 09:49:54;;;;;;;5.20;3.70;;;;;;;30.81;nan;-24667.47;5072112;28;20290;-62
2022/07/31 09:52:21;;;;;;;5.43;3.33;;;;;;;30.79;nan;-24666.81;5083928;28;20184;-62
2022/07/31 09:54:46;;;;;;;5.25;3.50;;;;;;;30.40;nan;-24656.44;5074349;28;20586;-62
2022/07/31 09:57:13;;;;;;;5.88;3.50;;;;;;;31.56;nan;-24687.63;5074902;28;20620;-61
2022/07/31 09:59:39;;;;;;;5.38;3.53;;;;;;;31.47;nan;-24685.16;5077724;28;20226;-61
2022/07/31 10:02:07;;;;;;;4.55;3.17;;;;;;;31.23;nan;-24678.78;5072589;28;20255;-62
2022/07/31 10:04:34;;;;;;;4.75;3.42;;;;;;;31.47;nan;-24685.31;5077997;28;20646;-62
2022/07/31 10:06:59;;;;;;;5.18;3.53;;;;;;;31.51;nan;-24686.41;5072837;28;20174;-62
2022/07/31 10:09:26;;;;;;;5.07;3.58;;;;;;;31.77;nan;-24693.31;5078779;28;20176;-62
2022/07/31 10:11:54;;;;;;;4.68;3.00;;;;;;;31.46;nan;-24685.03;5076540;28;20223;-62
2022/07/31 10:14:27;;;;;;;5.47;3.38;;;;;;;31.19;nan;-24677.69;5072558;28;20732;-60
2022/07/31 10:16:57;;;;;;;3.58;2.60;;;;;;;31.45;nan;-24684.63;5071376;28;20173;-61
2022/07/31 10:19:30;;;;;;;5.53;3.58;;;;;;;31.37;nan;-24682.44;5073375;28;20669;-61
2022/07/31 10:22:00;;;;;;;4.55;2.85;;;;;;;31.47;nan;-24685.31;5073002;28;20270;-61
2022/07/31 10:24:29;;;;;;;3.90;2.72;;;;;;;31.14;nan;-24676.34;5072960;28;20597;-61
2022/07/31 10:26:58;;;;;;;3.40;2.55;;;;;;;31.30;nan;-24680.69;5073176;28;20189;-60
2022/07/31 10:29:26;;;;;;;4.53;3.00;;;;;;;31.23;nan;-24678.66;5072346;28;20664;-61
2022/07/31 10:31:51;;;;;;;4.70;3.40;;;;;;;30.97;nan;-24671.69;5074899;28;20201;-61
2022/07/31 10:34:18;;;;;;;3.97;2.80;;;;;;;28.06;nan;-24593.34;5072450;28;20212;-60
2022/07/31 10:36:45;;;;;;;5.25;3.10;;;;;;;32.14;nan;-24703.13;5072842;28;20251;-60
2022/07/31 10:39:41;;;;;;;3.70;2.83;;;;;;;31.53;nan;-24686.94;5077674;28;20177;-61
2022/07/31 10:42:12;;;;;;;4.38;2.83;;;;;;;31.58;nan;-24688.03;5072430;28;20675;-60
2022/07/31 10:44:47;;;;;;;3.92;3.03;;;;;;;31.28;nan;-24680.13;5072649;28;20231;-61
2022/07/31 10:47:16;;;;;;;3.83;2.80;;;;;;;31.30;nan;-24680.69;5072605;28;20704;-61
2022/07/31 10:49:43;;;;;;;3.67;2.80;;;;;;;31.76;nan;-24692.94;5072149;28;20176;-61
2022/07/31 10:52:10;;;;;;;3.53;2.50;;;;;;;31.84;nan;-24695.22;5071010;28;20169;-61
2022/07/31 10:54:40;;;;;;;5.38;2.78;;;;;;;31.76;nan;-24693.06;5072409;28;20219;-61
2022/07/31 10:57:07;;;;;;;4.20;3.13;;;;;;;31.83;nan;-24694.81;5072841;28;20165;-61
2022/07/31 10:59:33;;;;;;;4.35;3.10;;;;;;;31.70;nan;-24691.44;5072426;28;20161;-61
2022/07/31 11:01:59;;;;;;;4.05;3.10;;;;;;;32.19;nan;-24704.59;5074616;28;20196;-61
2022/07/31 11:04:31;;;;;;;2.85;2.35;;;;;;;32.14;nan;-24703.25;5076844;28;20233;-61
2022/07/31 11:06:57;;;;;;;3.38;2.40;;;;;;;31.72;nan;-24691.84;5071835;28;20264;-61
2022/07/31 11:09:24;;;;;;;3.22;2.22;;;;;;;32.15;nan;-24703.53;5072553;28;20168;-62
2022/07/31 11:11:50;;;;;;;3.83;2.50;;;;;;;32.25;nan;-24706.22;5077234;28;20729;-61
2022/07/31 11:14:16;;;;;;;4.28;2.78;;;;;;;32.09;nan;-24701.88;5076485;28;20235;-61
2022/07/31 11:16:52;;;;;;;3.65;2.60;;;;;;;32.41;nan;-24710.56;5074326;28;20272;-61
2022/07/31 11:19:18;;;;;;;6.82;2.70;;;;;;;29.02;nan;-24619.06;5073949;28;20717;-61
2022/07/31 11:21:44;;;;;;;3.72;2.50;;;;;;;32.67;nan;-24717.50;5072083;28;20213;-61
2022/07/31 11:24:18;;;;;;;4.90;2.70;;;;;;;32.78;nan;-24720.47;5071885;28;20535;-61
2022/07/31 11:26:51;;;;;;;6.45;2.97;;;;;;;31.89;nan;-24696.59;5073498;28;20272;-61
2022/07/31 11:29:37;;;;;;;3.10;2.28;;;;;;;32.99;nan;-24725.91;5071873;28;20169;-61
2022/07/31 11:32:05;;;;;;;7.22;2.80;;;;;;;33.22;nan;-24732.28;5071627;28;20169;-61
2022/07/31 11:34:52;;;;;;;3.65;2.80;;;;;;;32.93;nan;-24724.41;5071750;28;20237;-61
2022/07/31 11:37:25;;;;;;;4.20;2.22;;;;;;;32.33;nan;-24708.28;5072483;28;20173;-61
2022/07/31 11:39:52;;;;;;;3.10;2.35;;;;;;;32.27;nan;-24706.78;5071677;28;20169;-61
2022/07/31 11:42:20;;;;;;;4.53;2.70;;;;;;;32.97;nan;-24725.38;5071277;28;20255;-61
2022/07/31 11:44:46;;;;;;;3.20;2.38;;;;;;;33.06;nan;-24727.81;5071825;28;20707;-61
2022/07/31 11:47:11;;;;;;;3.65;2.75;;;;;;;33.14;nan;-24729.97;5071743;28;20286;-61